sensor_id;sensor_type;location;lat;lon;timestamp;P1;durP1;ratioP1;P2;durP2;ratioP2
47167;SDS011;32931;47.778;17.806;2022-12-07T00:01:06;23.33;;;17.48;;
47167;SDS011;32931;47.778;17.806;2022-12-07T00:03:34;26.95;;;17.50;;
47167;SDS011;32931;47.778;17.806;2022-12-07T00:06:01;26.88;;;18.05;;
47167;SDS011;32931;47.778;17.806;2022-12-07T00:08:28;29.30;;;17.63;;
47167;SDS011;32931;47.778;17.806;2022-12-07T00:10:55;25.20;;;18.48;;
47167;SDS011;32931;47.778;17.806;2022-12-07T00:13:25;25.67;;;17.50;;
47167;SDS011;32931;47.778;17.806;2022-12-07T00:15:51;22.70;;;17.35;;
47167;SDS011;32931;47.778;17.806;2022-12-07T00:18:17;22.90;;;17.48;;
47167;SDS011;32931;47.778;17.806;2022-12-07T00:20:44;28.02;;;17.52;;
47167;SDS011;32931;47.778;17.806;2022-12-07T00:23:10;21.77;;;16.95;;
47167;SDS011;32931;47.778;17.806;2022-12-07T00:25:36;22.85;;;16.67;;
47167;SDS011;32931;47.778;17.806;2022-12-07T00:28:02;20.48;;;15.93;;
47167;SDS011;32931;47.778;17.806;2022-12-07T00:30:28;20.55;;;15.80;;
47167;SDS011;32931;47.778;17.806;2022-12-07T00:32:54;24.45;;;16.40;;
47167;SDS011;32931;47.778;17.806;2022-12-07T00:35:20;22.98;;;16.92;;
47167;SDS011;32931;47.778;17.806;2022-12-07T00:37:47;21.02;;;16.42;;
47167;SDS011;32931;47.778;17.806;2022-12-07T00:40:13;21.05;;;15.80;;
47167;SDS011;32931;47.778;17.806;2022-12-07T00:42:39;22.60;;;16.92;;
47167;SDS011;32931;47.778;17.806;2022-12-07T00:45:05;24.73;;;16.75;;
47167;SDS011;32931;47.778;17.806;2022-12-07T00:47:32;24.98;;;16.85;;
47167;SDS011;32931;47.778;17.806;2022-12-07T00:49:58;21.48;;;16.73;;
47167;SDS011;32931;47.778;17.806;2022-12-07T00:52:25;25.10;;;16.90;;
47167;SDS011;32931;47.778;17.806;2022-12-07T00:54:51;25.88;;;17.55;;
47167;SDS011;32931;47.778;17.806;2022-12-07T00:57:17;25.15;;;17.77;;
47167;SDS011;32931;47.778;17.806;2022-12-07T00:59:44;23.10;;;17.58;;
47167;SDS011;32931;47.778;17.806;2022-12-07T01:02:10;22.13;;;17.15;;
47167;SDS011;32931;47.778;17.806;2022-12-07T01:04:36;22.00;;;17.45;;
47167;SDS011;32931;47.778;17.806;2022-12-07T01:07:02;24.17;;;17.77;;
47167;SDS011;32931;47.778;17.806;2022-12-07T01:09:28;27.90;;;17.30;;
47167;SDS011;32931;47.778;17.806;2022-12-07T01:11:54;24.25;;;16.63;;
47167;SDS011;32931;47.778;17.806;2022-12-07T01:14:20;24.27;;;16.52;;
47167;SDS011;32931;47.778;17.806;2022-12-07T01:16:46;25.88;;;18.02;;
47167;SDS011;32931;47.778;17.806;2022-12-07T01:19:13;22.00;;;16.73;;
47167;SDS011;32931;47.778;17.806;2022-12-07T01:21:39;22.65;;;17.17;;
47167;SDS011;32931;47.778;17.806;2022-12-07T01:24:06;21.88;;;16.85;;
47167;SDS011;32931;47.778;17.806;2022-12-07T01:26:34;25.65;;;17.52;;
47167;SDS011;32931;47.778;17.806;2022-12-07T01:29:00;30.42;;;19.48;;
47167;SDS011;32931;47.778;17.806;2022-12-07T01:31:27;26.10;;;18.08;;
47167;SDS011;32931;47.778;17.806;2022-12-07T01:33:55;25.90;;;18.67;;
47167;SDS011;32931;47.778;17.806;2022-12-07T01:38:56;24.50;;;17.58;;
47167;SDS011;32931;47.778;17.806;2022-12-07T01:41:25;27.25;;;18.80;;
47167;SDS011;32931;47.778;17.806;2022-12-07T01:47:00;27.65;;;19.15;;
47167;SDS011;32931;47.778;17.806;2022-12-07T01:52:12;29.27;;;20.08;;
47167;SDS011;32931;47.778;17.806;2022-12-07T01:54:39;29.95;;;20.83;;
47167;SDS011;32931;47.778;17.806;2022-12-07T01:57:06;29.52;;;20.73;;
47167;SDS011;32931;47.778;17.806;2022-12-07T01:59:33;31.77;;;21.05;;
47167;SDS011;32931;47.778;17.806;2022-12-07T02:02:00;30.30;;;21.95;;
47167;SDS011;32931;47.778;17.806;2022-12-07T02:04:29;27.02;;;20.45;;
47167;SDS011;32931;47.778;17.806;2022-12-07T02:06:56;33.83;;;22.98;;
47167;SDS011;32931;47.778;17.806;2022-12-07T02:09:23;30.67;;;21.52;;
47167;SDS011;32931;47.778;17.806;2022-12-07T02:11:49;28.52;;;20.85;;
47167;SDS011;32931;47.778;17.806;2022-12-07T02:14:16;30.70;;;21.42;;
47167;SDS011;32931;47.778;17.806;2022-12-07T02:28:09;29.05;;;21.20;;
47167;SDS011;32931;47.778;17.806;2022-12-07T02:30:46;25.65;;;19.77;;
47167;SDS011;32931;47.778;17.806;2022-12-07T02:33:16;26.70;;;20.13;;
47167;SDS011;32931;47.778;17.806;2022-12-07T02:38:37;26.55;;;19.58;;
47167;SDS011;32931;47.778;17.806;2022-12-07T02:41:30;25.23;;;19.10;;
47167;SDS011;32931;47.778;17.806;2022-12-07T02:44:02;25.63;;;19.60;;
47167;SDS011;32931;47.778;17.806;2022-12-07T02:46:34;26.25;;;19.90;;
47167;SDS011;32931;47.778;17.806;2022-12-07T02:49:04;25.33;;;19.20;;
47167;SDS011;32931;47.778;17.806;2022-12-07T02:51:31;28.52;;;19.02;;
47167;SDS011;32931;47.778;17.806;2022-12-07T02:53:59;26.38;;;19.67;;
47167;SDS011;32931;47.778;17.806;2022-12-07T02:59:25;25.48;;;20.27;;
47167;SDS011;32931;47.778;17.806;2022-12-07T03:07:55;28.20;;;20.58;;
47167;SDS011;32931;47.778;17.806;2022-12-07T03:15:39;31.45;;;22.15;;
47167;SDS011;32931;47.778;17.806;2022-12-07T03:18:12;30.88;;;22.10;;
47167;SDS011;32931;47.778;17.806;2022-12-07T03:20:42;39.28;;;22.25;;
47167;SDS011;32931;47.778;17.806;2022-12-07T03:23:11;31.95;;;23.20;;
47167;SDS011;32931;47.778;17.806;2022-12-07T03:25:40;35.70;;;22.58;;
47167;SDS011;32931;47.778;17.806;2022-12-07T03:28:11;35.55;;;23.75;;
47167;SDS011;32931;47.778;17.806;2022-12-07T03:30:46;32.58;;;23.02;;
47167;SDS011;32931;47.778;17.806;2022-12-07T03:33:27;36.03;;;24.35;;
47167;SDS011;32931;47.778;17.806;2022-12-07T03:36:02;34.15;;;24.67;;
47167;SDS011;32931;47.778;17.806;2022-12-07T03:38:45;37.10;;;25.55;;
47167;SDS011;32931;47.778;17.806;2022-12-07T03:41:18;36.42;;;24.02;;
47167;SDS011;32931;47.778;17.806;2022-12-07T03:43:45;37.40;;;23.83;;
47167;SDS011;32931;47.778;17.806;2022-12-07T03:51:42;34.05;;;23.38;;
47167;SDS011;32931;47.778;17.806;2022-12-07T03:54:24;36.45;;;24.25;;
47167;SDS011;32931;47.778;17.806;2022-12-07T03:57:04;34.65;;;24.17;;
47167;SDS011;32931;47.778;17.806;2022-12-07T03:59:32;35.22;;;24.25;;
47167;SDS011;32931;47.778;17.806;2022-12-07T04:02:03;35.67;;;24.50;;
47167;SDS011;32931;47.778;17.806;2022-12-07T04:04:30;38.78;;;24.95;;
47167;SDS011;32931;47.778;17.806;2022-12-07T04:06:57;33.53;;;23.70;;
47167;SDS011;32931;47.778;17.806;2022-12-07T04:09:23;34.80;;;24.15;;
47167;SDS011;32931;47.778;17.806;2022-12-07T04:11:49;33.65;;;23.48;;
47167;SDS011;32931;47.778;17.806;2022-12-07T04:14:15;35.03;;;23.60;;
47167;SDS011;32931;47.778;17.806;2022-12-07T04:16:51;33.75;;;24.02;;
47167;SDS011;32931;47.778;17.806;2022-12-07T04:19:25;30.77;;;22.35;;
47167;SDS011;32931;47.778;17.806;2022-12-07T04:21:54;32.72;;;24.05;;
47167;SDS011;32931;47.778;17.806;2022-12-07T04:24:21;32.42;;;22.15;;
47167;SDS011;32931;47.778;17.806;2022-12-07T04:26:47;31.85;;;23.55;;
47167;SDS011;32931;47.778;17.806;2022-12-07T04:29:14;31.17;;;22.08;;
47167;SDS011;32931;47.778;17.806;2022-12-07T04:31:41;30.20;;;22.67;;
47167;SDS011;32931;47.778;17.806;2022-12-07T04:34:07;31.33;;;22.02;;
47167;SDS011;32931;47.778;17.806;2022-12-07T04:36:34;30.63;;;23.08;;
47167;SDS011;32931;47.778;17.806;2022-12-07T04:39:01;31.13;;;22.50;;
47167;SDS011;32931;47.778;17.806;2022-12-07T04:41:28;29.95;;;22.88;;
47167;SDS011;32931;47.778;17.806;2022-12-07T04:43:54;33.58;;;22.85;;
47167;SDS011;32931;47.778;17.806;2022-12-07T04:46:26;35.03;;;22.98;;
47167;SDS011;32931;47.778;17.806;2022-12-07T04:48:53;33.60;;;24.02;;
47167;SDS011;32931;47.778;17.806;2022-12-07T04:51:20;32.90;;;24.23;;
47167;SDS011;32931;47.778;17.806;2022-12-07T04:53:49;34.78;;;24.33;;
47167;SDS011;32931;47.778;17.806;2022-12-07T04:56:15;34.72;;;24.25;;
47167;SDS011;32931;47.778;17.806;2022-12-07T04:58:43;36.97;;;24.90;;
47167;SDS011;32931;47.778;17.806;2022-12-07T05:01:11;36.67;;;23.98;;
47167;SDS011;32931;47.778;17.806;2022-12-07T05:03:38;35.20;;;23.40;;
47167;SDS011;32931;47.778;17.806;2022-12-07T05:06:05;32.45;;;22.98;;
47167;SDS011;32931;47.778;17.806;2022-12-07T05:08:32;33.85;;;24.35;;
47167;SDS011;32931;47.778;17.806;2022-12-07T05:10:59;33.30;;;22.80;;
47167;SDS011;32931;47.778;17.806;2022-12-07T05:13:26;31.55;;;22.85;;
47167;SDS011;32931;47.778;17.806;2022-12-07T05:15:52;33.63;;;23.67;;
47167;SDS011;32931;47.778;17.806;2022-12-07T05:18:18;31.55;;;21.95;;
47167;SDS011;32931;47.778;17.806;2022-12-07T05:20:45;34.22;;;23.52;;
47167;SDS011;32931;47.778;17.806;2022-12-07T05:23:11;33.08;;;22.67;;
47167;SDS011;32931;47.778;17.806;2022-12-07T05:25:38;33.80;;;22.98;;
47167;SDS011;32931;47.778;17.806;2022-12-07T05:28:05;33.45;;;22.60;;
47167;SDS011;32931;47.778;17.806;2022-12-07T05:30:31;34.90;;;23.25;;
47167;SDS011;32931;47.778;17.806;2022-12-07T05:32:58;31.80;;;22.70;;
47167;SDS011;32931;47.778;17.806;2022-12-07T05:35:24;32.88;;;23.58;;
47167;SDS011;32931;47.778;17.806;2022-12-07T05:37:50;32.40;;;22.73;;
47167;SDS011;32931;47.778;17.806;2022-12-07T05:40:16;33.75;;;23.20;;
47167;SDS011;32931;47.778;17.806;2022-12-07T05:42:44;34.67;;;23.27;;
47167;SDS011;32931;47.778;17.806;2022-12-07T05:45:10;37.30;;;23.77;;
47167;SDS011;32931;47.778;17.806;2022-12-07T05:47:37;39.13;;;25.02;;
47167;SDS011;32931;47.778;17.806;2022-12-07T05:50:03;42.38;;;27.20;;
47167;SDS011;32931;47.778;17.806;2022-12-07T05:52:31;42.58;;;25.40;;
47167;SDS011;32931;47.778;17.806;2022-12-07T05:54:57;42.90;;;27.00;;
47167;SDS011;32931;47.778;17.806;2022-12-07T05:57:23;43.30;;;27.13;;
47167;SDS011;32931;47.778;17.806;2022-12-07T05:59:49;43.63;;;26.73;;
47167;SDS011;32931;47.778;17.806;2022-12-07T06:02:15;45.25;;;28.05;;
47167;SDS011;32931;47.778;17.806;2022-12-07T06:04:44;47.25;;;28.10;;
47167;SDS011;32931;47.778;17.806;2022-12-07T06:07:14;50.67;;;28.65;;
47167;SDS011;32931;47.778;17.806;2022-12-07T06:09:41;48.22;;;28.48;;
47167;SDS011;32931;47.778;17.806;2022-12-07T06:12:09;45.70;;;27.90;;
47167;SDS011;32931;47.778;17.806;2022-12-07T06:15:11;48.58;;;28.95;;
47167;SDS011;32931;47.778;17.806;2022-12-07T06:17:38;52.53;;;29.40;;
47167;SDS011;32931;47.778;17.806;2022-12-07T06:20:05;53.50;;;28.67;;
47167;SDS011;32931;47.778;17.806;2022-12-07T06:22:32;50.85;;;30.45;;
47167;SDS011;32931;47.778;17.806;2022-12-07T06:24:58;46.15;;;28.20;;
47167;SDS011;32931;47.778;17.806;2022-12-07T06:27:24;49.85;;;29.55;;
47167;SDS011;32931;47.778;17.806;2022-12-07T06:29:50;51.75;;;29.15;;
47167;SDS011;32931;47.778;17.806;2022-12-07T06:32:16;48.33;;;28.30;;
47167;SDS011;32931;47.778;17.806;2022-12-07T06:34:42;51.10;;;29.98;;
47167;SDS011;32931;47.778;17.806;2022-12-07T06:37:08;51.28;;;30.40;;
47167;SDS011;32931;47.778;17.806;2022-12-07T06:39:35;49.88;;;28.45;;
47167;SDS011;32931;47.778;17.806;2022-12-07T06:42:01;50.05;;;28.50;;
47167;SDS011;32931;47.778;17.806;2022-12-07T06:44:27;45.75;;;29.20;;
47167;SDS011;32931;47.778;17.806;2022-12-07T06:46:54;46.95;;;27.15;;
47167;SDS011;32931;47.778;17.806;2022-12-07T06:49:20;46.40;;;27.63;;
47167;SDS011;32931;47.778;17.806;2022-12-07T06:51:46;46.78;;;27.50;;
47167;SDS011;32931;47.778;17.806;2022-12-07T06:54:13;47.47;;;28.40;;
47167;SDS011;32931;47.778;17.806;2022-12-07T06:56:40;45.38;;;26.58;;
47167;SDS011;32931;47.778;17.806;2022-12-07T06:59:07;47.20;;;27.00;;
47167;SDS011;32931;47.778;17.806;2022-12-07T07:01:33;48.40;;;28.25;;
47167;SDS011;32931;47.778;17.806;2022-12-07T07:04:01;48.40;;;27.15;;
47167;SDS011;32931;47.778;17.806;2022-12-07T07:06:28;44.22;;;27.13;;
47167;SDS011;32931;47.778;17.806;2022-12-07T07:08:54;44.33;;;27.17;;
47167;SDS011;32931;47.778;17.806;2022-12-07T07:11:20;46.25;;;28.58;;
47167;SDS011;32931;47.778;17.806;2022-12-07T07:13:46;48.72;;;27.27;;
47167;SDS011;32931;47.778;17.806;2022-12-07T07:16:12;47.50;;;28.05;;
47167;SDS011;32931;47.778;17.806;2022-12-07T07:18:39;47.88;;;28.60;;
47167;SDS011;32931;47.778;17.806;2022-12-07T07:21:05;44.40;;;27.98;;
47167;SDS011;32931;47.778;17.806;2022-12-07T07:23:31;51.40;;;28.30;;
47167;SDS011;32931;47.778;17.806;2022-12-07T07:25:57;42.83;;;27.40;;
47167;SDS011;32931;47.778;17.806;2022-12-07T07:28:23;47.50;;;28.45;;
47167;SDS011;32931;47.778;17.806;2022-12-07T07:30:49;47.70;;;28.88;;
47167;SDS011;32931;47.778;17.806;2022-12-07T07:33:15;51.58;;;28.25;;
47167;SDS011;32931;47.778;17.806;2022-12-07T07:35:42;46.63;;;28.13;;
47167;SDS011;32931;47.778;17.806;2022-12-07T07:38:08;43.42;;;27.77;;
47167;SDS011;32931;47.778;17.806;2022-12-07T07:40:34;43.75;;;26.70;;
47167;SDS011;32931;47.778;17.806;2022-12-07T07:43:01;39.30;;;25.30;;
47167;SDS011;32931;47.778;17.806;2022-12-07T07:45:27;45.50;;;27.05;;
47167;SDS011;32931;47.778;17.806;2022-12-07T07:47:54;44.08;;;26.25;;
47167;SDS011;32931;47.778;17.806;2022-12-07T07:50:20;45.20;;;27.10;;
47167;SDS011;32931;47.778;17.806;2022-12-07T07:52:47;46.30;;;27.15;;
47167;SDS011;32931;47.778;17.806;2022-12-07T07:55:14;44.40;;;27.20;;
47167;SDS011;32931;47.778;17.806;2022-12-07T07:57:40;45.08;;;27.90;;
47167;SDS011;32931;47.778;17.806;2022-12-07T08:00:07;44.55;;;27.50;;
47167;SDS011;32931;47.778;17.806;2022-12-07T08:02:36;45.35;;;27.33;;
47167;SDS011;32931;47.778;17.806;2022-12-07T08:05:02;45.03;;;27.80;;
47167;SDS011;32931;47.778;17.806;2022-12-07T08:07:28;45.28;;;27.98;;
47167;SDS011;32931;47.778;17.806;2022-12-07T08:09:55;47.92;;;29.02;;
47167;SDS011;32931;47.778;17.806;2022-12-07T08:12:21;49.67;;;28.42;;
47167;SDS011;32931;47.778;17.806;2022-12-07T08:14:47;42.97;;;27.88;;
47167;SDS011;32931;47.778;17.806;2022-12-07T08:17:13;45.55;;;27.00;;
47167;SDS011;32931;47.778;17.806;2022-12-07T08:19:39;42.20;;;27.55;;
47167;SDS011;32931;47.778;17.806;2022-12-07T08:22:05;40.40;;;25.95;;
47167;SDS011;32931;47.778;17.806;2022-12-07T08:24:34;41.13;;;26.42;;
47167;SDS011;32931;47.778;17.806;2022-12-07T08:27:01;44.67;;;26.90;;
47167;SDS011;32931;47.778;17.806;2022-12-07T08:29:27;43.85;;;27.42;;
47167;SDS011;32931;47.778;17.806;2022-12-07T08:31:53;46.25;;;27.88;;
47167;SDS011;32931;47.778;17.806;2022-12-07T08:34:19;55.67;;;31.20;;
47167;SDS011;32931;47.778;17.806;2022-12-07T08:36:45;53.53;;;31.48;;
47167;SDS011;32931;47.778;17.806;2022-12-07T08:39:11;47.28;;;29.63;;
47167;SDS011;32931;47.778;17.806;2022-12-07T08:41:38;45.05;;;26.35;;
47167;SDS011;32931;47.778;17.806;2022-12-07T08:44:04;38.45;;;24.30;;
47167;SDS011;32931;47.778;17.806;2022-12-07T08:49:19;38.00;;;24.55;;
47167;SDS011;32931;47.778;17.806;2022-12-07T08:51:49;41.70;;;26.25;;
47167;SDS011;32931;47.778;17.806;2022-12-07T08:54:16;39.38;;;26.13;;
47167;SDS011;32931;47.778;17.806;2022-12-07T08:56:44;45.05;;;26.30;;
47167;SDS011;32931;47.778;17.806;2022-12-07T08:59:12;48.60;;;27.85;;
47167;SDS011;32931;47.778;17.806;2022-12-07T09:01:41;45.20;;;25.85;;
47167;SDS011;32931;47.778;17.806;2022-12-07T09:04:07;40.75;;;26.20;;
47167;SDS011;32931;47.778;17.806;2022-12-07T09:06:33;41.63;;;25.88;;
47167;SDS011;32931;47.778;17.806;2022-12-07T09:09:00;38.30;;;24.63;;
47167;SDS011;32931;47.778;17.806;2022-12-07T09:11:27;40.85;;;24.90;;
47167;SDS011;32931;47.778;17.806;2022-12-07T09:13:54;38.83;;;24.42;;
47167;SDS011;32931;47.778;17.806;2022-12-07T09:16:21;41.90;;;25.67;;
47167;SDS011;32931;47.778;17.806;2022-12-07T09:18:47;43.05;;;26.00;;
47167;SDS011;32931;47.778;17.806;2022-12-07T09:21:13;40.85;;;26.08;;
47167;SDS011;32931;47.778;17.806;2022-12-07T09:23:41;39.88;;;25.67;;
47167;SDS011;32931;47.778;17.806;2022-12-07T09:26:08;37.20;;;24.48;;
47167;SDS011;32931;47.778;17.806;2022-12-07T09:28:34;36.30;;;23.85;;
47167;SDS011;32931;47.778;17.806;2022-12-07T09:31:01;31.55;;;21.92;;
47167;SDS011;32931;47.778;17.806;2022-12-07T09:33:28;29.38;;;20.20;;
47167;SDS011;32931;47.778;17.806;2022-12-07T09:35:55;32.65;;;20.70;;
47167;SDS011;32931;47.778;17.806;2022-12-07T09:38:21;38.00;;;25.63;;
47167;SDS011;32931;47.778;17.806;2022-12-07T09:40:47;28.13;;;19.58;;
47167;SDS011;32931;47.778;17.806;2022-12-07T09:43:14;29.23;;;20.42;;
47167;SDS011;32931;47.778;17.806;2022-12-07T09:45:46;30.58;;;20.42;;
47167;SDS011;32931;47.778;17.806;2022-12-07T09:48:18;33.50;;;22.17;;
47167;SDS011;32931;47.778;17.806;2022-12-07T09:50:47;37.40;;;22.27;;
47167;SDS011;32931;47.778;17.806;2022-12-07T09:53:24;31.80;;;20.02;;
47167;SDS011;32931;47.778;17.806;2022-12-07T09:55:52;32.55;;;22.50;;
47167;SDS011;32931;47.778;17.806;2022-12-07T09:58:24;33.22;;;22.13;;
47167;SDS011;32931;47.778;17.806;2022-12-07T10:01:00;31.53;;;21.93;;
47167;SDS011;32931;47.778;17.806;2022-12-07T10:03:27;38.17;;;26.95;;
47167;SDS011;32931;47.778;17.806;2022-12-07T10:05:54;30.38;;;20.48;;
47167;SDS011;32931;47.778;17.806;2022-12-07T10:08:21;30.70;;;21.33;;
47167;SDS011;32931;47.778;17.806;2022-12-07T10:10:56;28.30;;;20.15;;
47167;SDS011;32931;47.778;17.806;2022-12-07T10:16:39;31.60;;;21.17;;
47167;SDS011;32931;47.778;17.806;2022-12-07T10:19:17;29.20;;;20.65;;
47167;SDS011;32931;47.778;17.806;2022-12-07T10:22:03;30.90;;;20.75;;
47167;SDS011;32931;47.778;17.806;2022-12-07T10:24:34;33.65;;;21.10;;
47167;SDS011;32931;47.778;17.806;2022-12-07T10:27:02;30.17;;;20.85;;
47167;SDS011;32931;47.778;17.806;2022-12-07T10:29:33;28.27;;;19.92;;
47167;SDS011;32931;47.778;17.806;2022-12-07T10:34:49;31.13;;;19.95;;
47167;SDS011;32931;47.778;17.806;2022-12-07T10:37:19;30.83;;;20.25;;
47167;SDS011;32931;47.778;17.806;2022-12-07T10:39:53;31.00;;;20.63;;
47167;SDS011;32931;47.778;17.806;2022-12-07T10:42:26;33.85;;;21.92;;
47167;SDS011;32931;47.778;17.806;2022-12-07T11:06:39;18.75;;;12.75;;
47167;SDS011;32931;47.778;17.806;2022-12-07T11:17:26;23.13;;;15.55;;
47167;SDS011;32931;47.778;17.806;2022-12-07T11:22:58;23.85;;;14.75;;
47167;SDS011;32931;47.778;17.806;2022-12-07T11:25:34;21.77;;;14.43;;
47167;SDS011;32931;47.778;17.806;2022-12-07T11:31:43;16.98;;;11.60;;
47167;SDS011;32931;47.778;17.806;2022-12-07T11:34:34;17.33;;;12.75;;
47167;SDS011;32931;47.778;17.806;2022-12-07T11:37:16;19.17;;;12.95;;
47167;SDS011;32931;47.778;17.806;2022-12-07T11:39:56;20.98;;;14.52;;
47167;SDS011;32931;47.778;17.806;2022-12-07T11:42:44;22.40;;;14.40;;
47167;SDS011;32931;47.778;17.806;2022-12-07T11:45:24;21.48;;;14.77;;
47167;SDS011;32931;47.778;17.806;2022-12-07T11:47:54;27.85;;;15.60;;
47167;SDS011;32931;47.778;17.806;2022-12-07T11:50:24;22.75;;;15.30;;
47167;SDS011;32931;47.778;17.806;2022-12-07T11:56:06;20.83;;;14.43;;
47167;SDS011;32931;47.778;17.806;2022-12-07T12:01:11;22.13;;;15.10;;
47167;SDS011;32931;47.778;17.806;2022-12-07T12:03:50;20.50;;;14.18;;
47167;SDS011;32931;47.778;17.806;2022-12-07T12:06:23;21.50;;;14.52;;
47167;SDS011;32931;47.778;17.806;2022-12-07T12:08:58;16.60;;;11.43;;
47167;SDS011;32931;47.778;17.806;2022-12-07T12:14:41;19.38;;;12.57;;
47167;SDS011;32931;47.778;17.806;2022-12-07T12:22:39;15.48;;;10.85;;
47167;SDS011;32931;47.778;17.806;2022-12-07T12:27:55;12.38;;;7.72;;
47167;SDS011;32931;47.778;17.806;2022-12-07T12:33:45;7.40;;;5.72;;
47167;SDS011;32931;47.778;17.806;2022-12-07T12:46:52;6.93;;;5.10;;
47167;SDS011;32931;47.778;17.806;2022-12-07T12:51:52;6.70;;;5.72;;
47167;SDS011;32931;47.778;17.806;2022-12-07T12:59:55;8.13;;;5.30;;
47167;SDS011;32931;47.778;17.806;2022-12-07T13:02:29;5.80;;;4.55;;
47167;SDS011;32931;47.778;17.806;2022-12-07T13:04:58;5.82;;;4.60;;
47167;SDS011;32931;47.778;17.806;2022-12-07T13:18:23;5.00;;;3.95;;
47167;SDS011;32931;47.778;17.806;2022-12-07T13:26:17;4.07;;;3.50;;
47167;SDS011;32931;47.778;17.806;2022-12-07T13:37:00;6.03;;;3.45;;
47167;SDS011;32931;47.778;17.806;2022-12-07T13:39:46;4.65;;;3.53;;
47167;SDS011;32931;47.778;17.806;2022-12-07T13:42:34;4.10;;;3.50;;
47167;SDS011;32931;47.778;17.806;2022-12-07T13:45:01;7.45;;;4.18;;
47167;SDS011;32931;47.778;17.806;2022-12-07T13:47:48;5.13;;;4.10;;
47167;SDS011;32931;47.778;17.806;2022-12-07T13:50:25;5.78;;;4.30;;
47167;SDS011;32931;47.778;17.806;2022-12-07T13:52:57;5.75;;;4.63;;
47167;SDS011;32931;47.778;17.806;2022-12-07T13:55:25;6.78;;;4.13;;
47167;SDS011;32931;47.778;17.806;2022-12-07T13:57:54;5.03;;;4.00;;
47167;SDS011;32931;47.778;17.806;2022-12-07T14:00:22;5.47;;;4.68;;
47167;SDS011;32931;47.778;17.806;2022-12-07T14:02:55;5.95;;;5.10;;
47167;SDS011;32931;47.778;17.806;2022-12-07T14:05:25;6.45;;;4.35;;
47167;SDS011;32931;47.778;17.806;2022-12-07T14:07:59;5.18;;;3.88;;
47167;SDS011;32931;47.778;17.806;2022-12-07T14:10:27;5.93;;;4.10;;
47167;SDS011;32931;47.778;17.806;2022-12-07T14:13:03;5.97;;;4.70;;
47167;SDS011;32931;47.778;17.806;2022-12-07T14:15:51;7.10;;;5.00;;
47167;SDS011;32931;47.778;17.806;2022-12-07T14:18:25;5.68;;;4.35;;
47167;SDS011;32931;47.778;17.806;2022-12-07T14:26:40;16.30;;;10.90;;
47167;SDS011;32931;47.778;17.806;2022-12-07T14:31:51;17.75;;;9.77;;
47167;SDS011;32931;47.778;17.806;2022-12-07T14:34:21;9.77;;;6.47;;
47167;SDS011;32931;47.778;17.806;2022-12-07T14:36:48;9.55;;;5.75;;
47167;SDS011;32931;47.778;17.806;2022-12-07T14:39:15;6.45;;;5.45;;
47167;SDS011;32931;47.778;17.806;2022-12-07T14:41:41;9.68;;;5.57;;
47167;SDS011;32931;47.778;17.806;2022-12-07T14:44:17;7.32;;;5.72;;
47167;SDS011;32931;47.778;17.806;2022-12-07T14:46:50;6.55;;;5.50;;
47167;SDS011;32931;47.778;17.806;2022-12-07T14:49:16;10.18;;;5.65;;
47167;SDS011;32931;47.778;17.806;2022-12-07T14:51:43;9.88;;;6.70;;
47167;SDS011;32931;47.778;17.806;2022-12-07T14:54:13;24.02;;;16.13;;
47167;SDS011;32931;47.778;17.806;2022-12-07T14:56:45;13.02;;;9.55;;
47167;SDS011;32931;47.778;17.806;2022-12-07T14:59:15;10.38;;;6.78;;
47167;SDS011;32931;47.778;17.806;2022-12-07T15:01:42;15.75;;;11.13;;
47167;SDS011;32931;47.778;17.806;2022-12-07T15:04:08;16.17;;;10.63;;
47167;SDS011;32931;47.778;17.806;2022-12-07T15:06:34;17.35;;;10.40;;
47167;SDS011;32931;47.778;17.806;2022-12-07T15:09:01;16.35;;;11.00;;
47167;SDS011;32931;47.778;17.806;2022-12-07T15:11:27;16.88;;;10.70;;
47167;SDS011;32931;47.778;17.806;2022-12-07T15:13:53;14.40;;;10.50;;
47167;SDS011;32931;47.778;17.806;2022-12-07T15:16:36;14.95;;;11.00;;
47167;SDS011;32931;47.778;17.806;2022-12-07T15:19:05;26.80;;;18.25;;
47167;SDS011;32931;47.778;17.806;2022-12-07T15:21:42;23.98;;;14.48;;
47167;SDS011;32931;47.778;17.806;2022-12-07T15:24:10;14.82;;;8.55;;
47167;SDS011;32931;47.778;17.806;2022-12-07T15:26:38;11.95;;;9.00;;
47167;SDS011;32931;47.778;17.806;2022-12-07T15:29:05;10.13;;;7.03;;
47167;SDS011;32931;47.778;17.806;2022-12-07T15:31:32;9.23;;;6.10;;
47167;SDS011;32931;47.778;17.806;2022-12-07T15:33:59;7.25;;;5.55;;
47167;SDS011;32931;47.778;17.806;2022-12-07T15:36:26;8.85;;;6.60;;
47167;SDS011;32931;47.778;17.806;2022-12-07T15:38:54;8.20;;;6.22;;
47167;SDS011;32931;47.778;17.806;2022-12-07T15:41:21;9.63;;;6.60;;
47167;SDS011;32931;47.778;17.806;2022-12-07T15:43:47;10.88;;;6.43;;
47167;SDS011;32931;47.778;17.806;2022-12-07T15:46:32;8.48;;;6.82;;
47167;SDS011;32931;47.778;17.806;2022-12-07T15:49:02;10.57;;;6.53;;
47167;SDS011;32931;47.778;17.806;2022-12-07T15:51:29;8.43;;;6.55;;
47167;SDS011;32931;47.778;17.806;2022-12-07T15:53:57;13.48;;;8.32;;
47167;SDS011;32931;47.778;17.806;2022-12-07T15:56:24;13.02;;;8.82;;
47167;SDS011;32931;47.778;17.806;2022-12-07T15:58:50;11.77;;;8.48;;
47167;SDS011;32931;47.778;17.806;2022-12-07T16:01:18;15.07;;;7.72;;
47167;SDS011;32931;47.778;17.806;2022-12-07T16:03:45;17.42;;;8.20;;
47167;SDS011;32931;47.778;17.806;2022-12-07T16:06:14;11.82;;;8.20;;
47167;SDS011;32931;47.778;17.806;2022-12-07T16:08:42;13.25;;;8.25;;
47167;SDS011;32931;47.778;17.806;2022-12-07T16:11:09;13.52;;;9.13;;
47167;SDS011;32931;47.778;17.806;2022-12-07T16:13:36;17.52;;;9.98;;
47167;SDS011;32931;47.778;17.806;2022-12-07T16:16:06;13.38;;;10.10;;
47167;SDS011;32931;47.778;17.806;2022-12-07T16:18:35;16.13;;;10.40;;
47167;SDS011;32931;47.778;17.806;2022-12-07T16:21:01;24.65;;;12.18;;
47167;SDS011;32931;47.778;17.806;2022-12-07T16:23:27;31.90;;;12.70;;
47167;SDS011;32931;47.778;17.806;2022-12-07T16:25:53;50.97;;;15.32;;
47167;SDS011;32931;47.778;17.806;2022-12-07T16:28:20;36.88;;;14.73;;
47167;SDS011;32931;47.778;17.806;2022-12-07T16:30:47;25.33;;;14.38;;
47167;SDS011;32931;47.778;17.806;2022-12-07T16:33:13;33.83;;;12.93;;
47167;SDS011;32931;47.778;17.806;2022-12-07T16:35:39;30.65;;;12.35;;
47167;SDS011;32931;47.778;17.806;2022-12-07T16:38:09;36.90;;;12.77;;
47167;SDS011;32931;47.778;17.806;2022-12-07T16:40:35;25.27;;;11.50;;
47167;SDS011;32931;47.778;17.806;2022-12-07T16:43:01;21.48;;;12.02;;
47167;SDS011;32931;47.778;17.806;2022-12-07T16:45:27;35.85;;;13.95;;
47167;SDS011;32931;47.778;17.806;2022-12-07T16:47:53;43.15;;;15.65;;
47167;SDS011;32931;47.778;17.806;2022-12-07T16:50:19;47.72;;;15.43;;
47167;SDS011;32931;47.778;17.806;2022-12-07T16:52:46;25.60;;;14.80;;
47167;SDS011;32931;47.778;17.806;2022-12-07T16:55:12;25.23;;;13.82;;
47167;SDS011;32931;47.778;17.806;2022-12-07T16:57:38;21.95;;;12.88;;
47167;SDS011;32931;47.778;17.806;2022-12-07T17:00:04;24.90;;;12.40;;
47167;SDS011;32931;47.778;17.806;2022-12-07T17:02:31;20.92;;;11.20;;